Austin, Texas
Traffic Map
Current Weather Conditions
Austin, Texas
Clear
Clear
79°
Feels Like: 79°
Wind Chill: 79° Ceiling: Unl
Heat Index: 79° Visibility: 10mi
Dew Point: 53° Wind: 7mph
Humidity: 40% Direction: 90° (E)
Pressure: 30.02in Gusts: 0mph
Raw Report DataKATT 211951Z AUTO 09006KT 10SM CLR 26/12 A3002 RMK AO2 SLP155 T02610117
Traffic Incident Summary
Active as of:
Severity:
Category:
InformationThere was an issue retrieving the traffic information for this location. Please try a different location or try again shortly.
Advertisements
Track Severe Weather on mobile